createdAt,value
2023-04-22T00:00:17.230Z,12.50
2023-04-22T00:02:44.640Z,12.50
2023-04-22T00:05:15.068Z,12.40
2023-04-22T00:07:43.558Z,12.40
2023-04-22T00:10:11.677Z,12.40
2023-04-22T00:12:38.839Z,12.40
2023-04-22T00:15:06.671Z,12.40
2023-04-22T00:17:33.867Z,12.30
2023-04-22T00:20:01.557Z,12.30
2023-04-22T00:22:28.549Z,12.30
2023-04-22T00:24:55.613Z,12.30
2023-04-22T00:27:22.584Z,12.30
2023-04-22T00:29:49.583Z,12.30
2023-04-22T00:32:17.455Z,12.30
2023-04-22T00:34:44.355Z,12.30
2023-04-22T00:37:11.485Z,12.30
2023-04-22T00:39:39.980Z,12.30
2023-04-22T00:42:07.912Z,12.30
2023-04-22T00:44:36.566Z,12.30
2023-04-22T00:47:05.668Z,12.30
2023-04-22T00:49:34.783Z,12.30
2023-04-22T00:52:02.107Z,12.40
2023-04-22T00:54:29.641Z,12.30
2023-04-22T00:56:57.917Z,12.30
2023-04-22T00:59:26.831Z,12.30
2023-04-22T01:01:54.315Z,12.30
2023-04-22T01:04:23.150Z,12.30
2023-04-22T01:06:53.057Z,12.20
2023-04-22T01:09:23.103Z,12.20
2023-04-22T01:11:50.266Z,12.20
2023-04-22T01:14:17.205Z,12.20
2023-04-22T01:16:45.207Z,12.20
2023-04-22T01:19:13.243Z,12.20
2023-04-22T01:21:40.920Z,12.20
2023-04-22T01:24:08.812Z,12.20
2023-04-22T01:26:37.238Z,12.30
2023-04-22T01:29:06.089Z,12.30
2023-04-22T01:31:33.590Z,12.30
2023-04-22T01:34:00.976Z,12.30
2023-04-22T01:36:28.093Z,12.30
2023-04-22T01:38:55.635Z,12.30
2023-04-22T01:41:22.645Z,12.30
2023-04-22T01:43:50.657Z,12.40
2023-04-22T01:46:18.184Z,12.40
2023-04-22T01:48:50.526Z,12.30
2023-04-22T01:51:18.310Z,12.40
2023-04-22T01:53:45.274Z,12.40
2023-04-22T01:56:12.310Z,12.30
2023-04-22T01:58:40.584Z,12.40
2023-04-22T02:01:10.481Z,12.40
2023-04-22T02:03:38.410Z,12.30
2023-04-22T02:06:05.908Z,12.30
2023-04-22T02:08:32.892Z,12.40
2023-04-22T02:11:00.961Z,12.40
2023-04-22T02:13:41.244Z,12.40
2023-04-22T02:16:09.378Z,12.40
2023-04-22T02:18:36.598Z,12.30
2023-04-22T02:21:03.802Z,12.30
2023-04-22T02:23:31.208Z,12.30
2023-04-22T02:25:58.178Z,12.30
2023-04-22T02:28:25.119Z,12.30
2023-04-22T02:30:52.068Z,12.30
2023-04-22T02:33:19.080Z,12.30
2023-04-22T02:35:46.467Z,12.30
2023-04-22T02:38:18.532Z,12.30
2023-04-22T02:40:45.445Z,12.30
2023-04-22T02:43:12.525Z,12.30
2023-04-22T02:45:40.926Z,12.30
2023-04-22T02:48:11.768Z,12.30
2023-04-22T02:50:39.770Z,12.30
2023-04-22T02:53:08.151Z,12.20
2023-04-22T02:55:35.387Z,12.20
2023-04-22T02:58:02.492Z,12.20
2023-04-22T03:00:29.622Z,12.20
2023-04-22T03:02:56.873Z,12.10
2023-04-22T03:05:28.987Z,12.10
2023-04-22T03:07:56.068Z,12.10
2023-04-22T03:10:23.081Z,12.10
2023-04-22T03:12:51.018Z,12.10
2023-04-22T03:15:21.283Z,12.10
2023-04-22T03:17:49.207Z,12.20
2023-04-22T03:20:17.079Z,12.20
2023-04-22T03:22:44.178Z,12.20
2023-04-22T03:25:13.525Z,12.20
2023-04-22T03:27:45.258Z,12.20
2023-04-22T03:30:12.430Z,12.20
2023-04-22T03:32:39.399Z,12.20
2023-04-22T03:35:16.538Z,12.20
2023-04-22T03:37:46.179Z,12.20
2023-04-22T03:40:17.735Z,12.20
2023-04-22T03:42:44.952Z,12.20
2023-04-22T03:45:12.084Z,12.20
2023-04-22T03:47:44.895Z,12.20
2023-04-22T03:50:21.080Z,12.20
2023-04-22T03:52:49.912Z,12.20
2023-04-22T03:55:20.787Z,12.20
2023-04-22T03:57:50.526Z,12.20
2023-04-22T04:00:17.683Z,12.30
2023-04-22T04:02:51.167Z,12.20
2023-04-22T04:05:21.968Z,12.30
2023-04-22T04:07:48.937Z,12.20
2023-04-22T04:10:16.027Z,12.20
2023-04-22T04:12:43.512Z,12.20
2023-04-22T04:15:11.983Z,12.20
2023-04-22T04:17:39.991Z,12.30
2023-04-22T04:20:07.436Z,12.30
2023-04-22T04:22:36.175Z,12.30
2023-04-22T04:25:06.838Z,12.30
2023-04-22T04:27:39.422Z,12.30
2023-04-22T04:30:07.617Z,12.30
2023-04-22T04:32:45.857Z,12.30
2023-04-22T04:35:15.333Z,12.30
2023-04-22T04:37:47.324Z,12.30
2023-04-22T04:40:15.443Z,12.30
2023-04-22T04:43:08.813Z,12.40
2023-04-22T04:45:50.664Z,12.40
2023-04-22T04:48:27.588Z,12.40
2023-04-22T04:51:04.489Z,12.50
2023-04-22T04:53:34.259Z,12.50
2023-04-22T04:56:01.836Z,12.60
2023-04-22T04:58:35.126Z,12.60
2023-04-22T05:01:20.804Z,12.60
2023-04-22T05:03:49.021Z,12.60
2023-04-22T05:06:18.186Z,12.70
2023-04-22T05:09:08.263Z,12.70
2023-04-22T05:11:36.601Z,12.70
2023-04-22T05:14:10.868Z,12.80
2023-04-22T05:16:41.447Z,12.80
2023-04-22T05:19:10.303Z,12.80
2023-04-22T05:21:40.066Z,12.90
2023-04-22T05:24:07.525Z,13.00
2023-04-22T05:26:34.720Z,13.10
2023-04-22T05:29:08.060Z,13.20
2023-04-22T05:31:35.105Z,13.30
2023-04-22T05:34:02.139Z,13.50
2023-04-22T05:36:31.615Z,13.60
2023-04-22T05:38:59.448Z,13.80
2023-04-22T05:41:27.259Z,13.90
2023-04-22T05:43:56.469Z,14.00
2023-04-22T05:46:24.393Z,14.20
2023-04-22T05:48:51.929Z,14.30
2023-04-22T05:51:37.784Z,14.50
2023-04-22T05:54:05.229Z,14.70
2023-04-22T05:56:32.486Z,14.90
2023-04-22T05:58:59.621Z,15.10
2023-04-22T06:01:27.186Z,15.40
2023-04-22T06:04:01.032Z,15.80
2023-04-22T06:06:30.745Z,16.20
2023-04-22T06:08:57.863Z,16.40
2023-04-22T06:11:24.826Z,16.60
2023-04-22T06:13:51.792Z,16.70
2023-04-22T06:16:19.499Z,16.80
2023-04-22T06:18:46.994Z,16.90
2023-04-22T06:21:14.876Z,17.20
2023-04-22T06:23:42.665Z,17.60
2023-04-22T06:26:09.792Z,17.60
2023-04-22T06:28:37.724Z,17.50
2023-04-22T06:31:10.367Z,17.20
2023-04-22T06:33:37.431Z,17.10
2023-04-22T06:36:05.182Z,17.20
2023-04-22T06:38:33.579Z,17.20
2023-04-22T06:41:21.700Z,17.40
2023-04-22T06:43:50.308Z,18.20
2023-04-22T06:46:36.281Z,19.40
2023-04-22T06:49:21.839Z,20.80
2023-04-22T06:51:55.429Z,22.20
2023-04-22T06:54:23.562Z,23.30
2023-04-22T06:56:51.645Z,24.20
2023-04-22T06:59:18.664Z,25.00
2023-04-22T07:01:47.018Z,25.70
2023-04-22T07:04:14.321Z,26.20
2023-04-22T07:06:41.431Z,26.50
2023-04-22T07:09:09.477Z,26.90
2023-04-22T07:11:37.883Z,27.20
2023-04-22T07:14:19.552Z,27.40
2023-04-22T07:16:46.815Z,27.60
2023-04-22T07:19:13.781Z,27.60
2023-04-22T07:21:40.694Z,27.70
2023-04-22T07:24:12.024Z,27.90
2023-04-22T07:26:40.310Z,28.00
2023-04-22T07:29:07.348Z,28.10
2023-04-22T07:31:35.651Z,28.20
2023-04-22T07:34:03.408Z,28.20
2023-04-22T07:36:32.018Z,28.30
2023-04-22T07:38:59.042Z,28.60
2023-04-22T07:41:26.166Z,28.80
2023-04-22T07:43:53.550Z,29.00
2023-04-22T07:46:21.089Z,29.20
2023-04-22T07:48:48.048Z,29.10
2023-04-22T07:51:14.996Z,28.90
2023-04-22T07:53:41.832Z,28.70
2023-04-22T07:56:08.870Z,28.60
2023-04-22T07:58:35.775Z,28.40
2023-04-22T08:01:02.736Z,28.40
2023-04-22T08:03:29.936Z,28.80
2023-04-22T08:05:58.327Z,29.20
2023-04-22T08:08:25.904Z,29.60
2023-04-22T08:10:52.845Z,30.10
2023-04-22T08:13:19.689Z,30.20
2023-04-22T08:15:46.609Z,30.20
2023-04-22T08:18:13.426Z,29.70
2023-04-22T08:20:40.426Z,29.70
2023-04-22T08:23:07.588Z,30.20
2023-04-22T08:25:34.604Z,30.50
2023-04-22T08:28:01.452Z,30.70
2023-04-22T08:30:28.308Z,30.80
2023-04-22T08:32:55.196Z,30.80
2023-04-22T08:35:22.024Z,30.60
2023-04-22T08:37:48.888Z,30.20
2023-04-22T08:40:15.849Z,29.70
2023-04-22T08:42:44.232Z,29.40
2023-04-22T08:45:11.078Z,29.10
2023-04-22T08:47:38.696Z,29.20
2023-04-22T08:50:06.422Z,29.00
2023-04-22T08:52:33.303Z,28.90
2023-04-22T08:55:00.227Z,28.90
2023-04-22T08:57:27.352Z,28.90
2023-04-22T08:59:55.650Z,28.90
2023-04-22T09:02:24.125Z,28.70
2023-04-22T09:04:52.403Z,28.20
2023-04-22T09:07:26.660Z,28.20
2023-04-22T09:09:56.965Z,28.30
2023-04-22T09:12:24.825Z,28.10
2023-04-22T09:14:52.115Z,28.50
2023-04-22T09:17:29.595Z,28.70
2023-04-22T09:20:00.282Z,28.90
2023-04-22T09:22:27.802Z,28.70
2023-04-22T09:24:54.758Z,28.80
2023-04-22T09:27:24.224Z,28.80
2023-04-22T09:29:51.564Z,28.80
2023-04-22T09:32:18.612Z,28.60
2023-04-22T09:34:52.379Z,28.50
2023-04-22T09:37:21.277Z,28.70
2023-04-22T09:39:49.744Z,28.80
2023-04-22T09:42:19.973Z,28.90
2023-04-22T09:44:48.048Z,29.30
2023-04-22T09:47:14.860Z,29.50
2023-04-22T09:49:45.736Z,29.40
2023-04-22T09:52:21.584Z,29.20
2023-04-22T09:54:54.699Z,28.90
2023-04-22T09:57:22.332Z,28.60
2023-04-22T09:59:53.090Z,29.10
2023-04-22T10:02:28.415Z,29.80
2023-04-22T10:04:55.347Z,30.70
2023-04-22T10:07:22.404Z,30.80
2023-04-22T10:09:49.397Z,30.90
2023-04-22T10:12:16.742Z,31.20
2023-04-22T10:14:50.103Z,31.50
2023-04-22T10:17:17.506Z,31.70
2023-04-22T10:19:46.559Z,31.50
2023-04-22T10:22:14.214Z,31.10
2023-04-22T10:24:42.096Z,30.90
2023-04-22T10:27:10.829Z,30.70
2023-04-22T10:29:39.227Z,29.90
2023-04-22T10:32:25.126Z,29.10
2023-04-22T10:35:06.874Z,28.90
2023-04-22T10:37:33.799Z,29.20
2023-04-22T10:40:11.203Z,29.30
2023-04-22T10:42:41.674Z,29.30
2023-04-22T10:45:13.166Z,29.10
2023-04-22T10:47:41.936Z,28.80
2023-04-22T10:50:09.891Z,28.40
2023-04-22T10:52:36.966Z,28.00
2023-04-22T10:55:04.031Z,27.90
2023-04-22T10:57:37.895Z,28.10
2023-04-22T11:00:23.624Z,28.30
2023-04-22T11:02:53.970Z,28.20
2023-04-22T11:05:24.568Z,28.00
2023-04-22T11:07:54.035Z,27.80
2023-04-22T11:10:34.120Z,27.50
2023-04-22T11:13:01.673Z,27.30
2023-04-22T11:15:29.629Z,27.10
2023-04-22T11:17:56.623Z,27.40
2023-04-22T11:20:23.612Z,27.90
2023-04-22T11:22:55.566Z,27.80
2023-04-22T11:25:24.520Z,28.10
2023-04-22T11:27:52.639Z,28.40
2023-04-22T11:30:23.056Z,28.20
2023-04-22T11:32:53.898Z,28.00
2023-04-22T11:35:20.756Z,27.90
2023-04-22T11:37:47.562Z,27.90
2023-04-22T11:40:29.057Z,28.20
2023-04-22T11:42:59.232Z,28.70
2023-04-22T11:45:26.522Z,29.30
2023-04-22T11:47:53.576Z,29.50
2023-04-22T11:50:27.399Z,29.60
2023-04-22T11:52:58.384Z,29.40
2023-04-22T11:55:27.662Z,29.10
2023-04-22T11:58:10.754Z,28.80
2023-04-22T12:00:47.452Z,28.90
2023-04-22T12:03:15.850Z,29.60
2023-04-22T12:05:44.063Z,30.30
2023-04-22T12:08:17.790Z,30.80
2023-04-22T12:10:45.763Z,31.00
2023-04-22T12:13:33.012Z,30.70
2023-04-22T12:16:04.698Z,30.20
2023-04-22T12:18:31.837Z,30.20
2023-04-22T12:21:08.136Z,30.00
2023-04-22T12:23:44.783Z,29.90
2023-04-22T12:26:12.155Z,30.00
2023-04-22T12:28:39.686Z,30.00
2023-04-22T12:31:06.881Z,29.90
2023-04-22T12:33:34.007Z,29.90
2023-04-22T12:36:01.048Z,29.80
2023-04-22T12:38:27.940Z,29.80
2023-04-22T12:40:54.976Z,30.00
2023-04-22T12:43:21.870Z,30.30
2023-04-22T12:45:48.803Z,30.30
2023-04-22T12:48:16.253Z,30.10
2023-04-22T12:50:43.185Z,29.90
2023-04-22T12:53:10.213Z,29.30
2023-04-22T12:55:37.036Z,28.70
2023-04-22T12:58:04.217Z,28.50
2023-04-22T13:00:31.176Z,28.40
2023-04-22T13:02:58.130Z,28.50
2023-04-22T13:05:25.289Z,28.50
2023-04-22T13:08:05.678Z,28.30
2023-04-22T13:10:33.736Z,28.00
2023-04-22T13:13:16.018Z,27.80
2023-04-22T13:15:45.643Z,27.40
2023-04-22T13:18:12.512Z,27.10
2023-04-22T13:20:40.819Z,26.90
2023-04-22T13:23:08.179Z,26.60
2023-04-22T13:25:35.054Z,26.50
2023-04-22T13:28:02.026Z,26.80
2023-04-22T13:30:28.871Z,27.40
2023-04-22T13:32:55.728Z,27.60
2023-04-22T13:35:22.656Z,27.80
2023-04-22T13:37:49.504Z,28.10
2023-04-22T13:40:16.656Z,28.00
2023-04-22T13:42:44.466Z,27.90
2023-04-22T13:45:11.374Z,27.60
2023-04-22T13:47:38.215Z,27.00
2023-04-22T13:50:06.382Z,26.90
2023-04-22T13:52:34.084Z,26.70
2023-04-22T13:55:02.390Z,26.70
2023-04-22T13:57:29.287Z,26.50
2023-04-22T13:59:56.101Z,26.30
2023-04-22T14:02:23.070Z,26.10
2023-04-22T14:04:49.876Z,25.80
2023-04-22T14:07:16.783Z,25.60
2023-04-22T14:09:43.805Z,25.60
2023-04-22T14:12:11.295Z,25.60
2023-04-22T14:14:38.317Z,25.50
2023-04-22T14:17:05.364Z,25.50
2023-04-22T14:19:32.284Z,25.70
2023-04-22T14:21:59.105Z,25.70
2023-04-22T14:24:26.832Z,25.60
2023-04-22T14:26:54.037Z,25.70
2023-04-22T14:29:21.134Z,25.90
2023-04-22T14:31:49.868Z,25.90
2023-04-22T14:34:17.209Z,25.60
2023-04-22T14:36:44.232Z,25.20
2023-04-22T14:39:11.070Z,25.00
2023-04-22T14:41:37.873Z,25.00
2023-04-22T14:44:04.696Z,25.00
2023-04-22T14:46:31.548Z,25.20
2023-04-22T14:48:58.524Z,25.10
2023-04-22T14:51:25.438Z,25.00
2023-04-22T14:53:52.263Z,25.00
2023-04-22T14:56:19.056Z,24.80
2023-04-22T14:58:46.523Z,24.60
2023-04-22T15:01:13.565Z,24.50
2023-04-22T15:03:40.806Z,24.60
2023-04-22T15:06:07.790Z,24.60
2023-04-22T15:08:34.576Z,24.60
2023-04-22T15:11:01.418Z,24.70
2023-04-22T15:13:28.254Z,24.70
2023-04-22T15:15:55.072Z,24.70
2023-04-22T15:18:21.948Z,24.60
2023-04-22T15:20:48.758Z,24.70
2023-04-22T15:23:15.978Z,24.50
2023-04-22T15:25:42.872Z,24.30
2023-04-22T15:28:09.761Z,24.20
2023-04-22T15:30:36.616Z,24.10
2023-04-22T15:33:05.003Z,24.10
2023-04-22T15:35:32.015Z,24.00
2023-04-22T15:37:58.888Z,23.90
2023-04-22T15:40:25.732Z,23.90
2023-04-22T15:42:52.562Z,23.80
2023-04-22T15:45:20.005Z,23.80
2023-04-22T15:47:46.951Z,23.70
2023-04-22T15:50:13.835Z,23.50
2023-04-22T15:52:40.951Z,23.50
2023-04-22T15:55:08.320Z,23.40
2023-04-22T15:57:35.592Z,23.30
2023-04-22T16:00:11.157Z,23.30
2023-04-22T16:02:42.981Z,23.20
2023-04-22T16:05:11.667Z,23.20
2023-04-22T16:07:38.822Z,23.20
2023-04-22T16:10:06.348Z,23.20
2023-04-22T16:12:34.428Z,23.10
2023-04-22T16:15:01.972Z,23.00
2023-04-22T16:17:29.015Z,23.00
2023-04-22T16:19:55.913Z,22.90
2023-04-22T16:22:22.797Z,22.80
2023-04-22T16:24:49.605Z,22.60
2023-04-22T16:27:18.100Z,22.60
2023-04-22T16:29:45.416Z,22.60
2023-04-22T16:32:12.232Z,22.50
2023-04-22T16:34:39.274Z,22.50
2023-04-22T16:37:06.536Z,22.30
2023-04-22T16:39:33.441Z,22.20
2023-04-22T16:42:00.286Z,22.10
2023-04-22T16:44:27.139Z,22.00
2023-04-22T16:46:54.031Z,21.90
2023-04-22T16:49:21.061Z,21.80
2023-04-22T16:51:48.465Z,21.70
2023-04-22T16:54:15.303Z,21.60
2023-04-22T16:56:42.110Z,21.60
2023-04-22T16:59:08.992Z,21.50
2023-04-22T17:01:36.258Z,21.40
2023-04-22T17:04:03.329Z,21.40
2023-04-22T17:06:31.236Z,21.30
2023-04-22T17:08:58.252Z,21.20
2023-04-22T17:11:25.378Z,21.10
2023-04-22T17:13:52.316Z,21.10
2023-04-22T17:16:19.369Z,21.00
2023-04-22T17:18:47.268Z,20.90
2023-04-22T17:21:14.228Z,20.90
2023-04-22T17:23:41.174Z,20.80
2023-04-22T17:26:08.214Z,20.70
2023-04-22T17:28:35.049Z,20.60
2023-04-22T17:31:02.479Z,20.50
2023-04-22T17:33:30.585Z,20.40
2023-04-22T17:35:57.533Z,20.30
2023-04-22T17:38:24.408Z,20.30
2023-04-22T17:40:51.227Z,20.20
2023-04-22T17:43:18.068Z,20.10
2023-04-22T17:45:45.217Z,20.00
2023-04-22T17:48:12.078Z,19.90
2023-04-22T17:50:39.011Z,19.80
2023-04-22T17:53:06.052Z,19.70
2023-04-22T17:55:35.278Z,19.50
2023-04-22T17:58:02.811Z,19.40
2023-04-22T18:00:29.948Z,19.20
2023-04-22T18:02:57.122Z,19.10
2023-04-22T18:05:24.379Z,18.90
2023-04-22T18:07:51.222Z,18.80
2023-04-22T18:10:18.117Z,18.70
2023-04-22T18:12:45.064Z,18.60
2023-04-22T18:15:11.978Z,18.40
2023-04-22T18:17:38.958Z,18.30
2023-04-22T18:20:17.412Z,18.10
2023-04-22T18:22:46.857Z,18.00
2023-04-22T18:25:14.181Z,17.90
2023-04-22T18:27:41.286Z,17.80
2023-04-22T18:30:08.332Z,17.70
2023-04-22T18:32:35.983Z,17.70
2023-04-22T18:35:03.070Z,17.60
2023-04-22T18:37:30.922Z,17.60
2023-04-22T18:39:57.796Z,17.50
2023-04-22T18:42:24.687Z,17.50
2023-04-22T18:44:51.597Z,17.50
2023-04-22T18:47:18.503Z,17.50
2023-04-22T18:49:45.640Z,17.50
2023-04-22T18:52:12.634Z,17.40
2023-04-22T18:54:39.858Z,17.40
2023-04-22T18:57:06.975Z,17.40
2023-04-22T18:59:34.005Z,17.40
2023-04-22T19:02:01.086Z,17.40
2023-04-22T19:04:28.105Z,17.40
2023-04-22T19:06:57.117Z,17.40
2023-04-22T19:09:24.319Z,17.50
2023-04-22T19:11:51.308Z,17.50
2023-04-22T19:14:18.800Z,17.50
2023-04-22T19:16:45.931Z,17.50
2023-04-22T19:19:12.892Z,17.50
2023-04-22T19:21:40.481Z,17.50
2023-04-22T19:24:07.814Z,17.60
2023-04-22T19:26:34.777Z,17.60
2023-04-22T19:29:01.999Z,17.60
2023-04-22T19:31:29.132Z,17.60
2023-04-22T19:33:56.196Z,17.60
2023-04-22T19:36:23.416Z,17.60
2023-04-22T19:38:50.355Z,17.50
2023-04-22T19:41:17.459Z,17.50
2023-04-22T19:43:44.556Z,17.50
2023-04-22T19:46:11.814Z,17.50
2023-04-22T19:48:39.008Z,17.40
2023-04-22T19:51:06.787Z,17.40
2023-04-22T19:53:34.980Z,17.40
2023-04-22T19:56:03.089Z,17.40
2023-04-22T19:58:31.634Z,17.40
2023-04-22T20:00:58.749Z,17.30
2023-04-22T20:03:26.541Z,17.30
2023-04-22T20:05:54.607Z,17.30
2023-04-22T20:08:26.907Z,17.20
2023-04-22T20:10:55.293Z,17.20
2023-04-22T20:13:22.684Z,17.10
2023-04-22T20:15:50.263Z,17.10
2023-04-22T20:18:17.744Z,17.10
2023-04-22T20:20:48.305Z,17.00
2023-04-22T20:23:16.990Z,17.00
2023-04-22T20:25:44.735Z,17.00
2023-04-22T20:28:11.985Z,16.90
2023-04-22T20:30:39.822Z,16.90
2023-04-22T20:33:07.052Z,16.80
2023-04-22T20:35:35.985Z,16.70
2023-04-22T20:38:03.733Z,16.70
2023-04-22T20:40:30.910Z,16.60
2023-04-22T20:43:01.036Z,16.60
2023-04-22T20:45:28.620Z,16.60
2023-04-22T20:47:58.078Z,16.50
2023-04-22T20:50:25.669Z,16.40
2023-04-22T20:52:53.261Z,16.40
2023-04-22T20:55:20.227Z,16.30
2023-04-22T20:57:47.148Z,16.30
2023-04-22T21:00:14.770Z,16.30
2023-04-22T21:02:42.556Z,16.20
2023-04-22T21:05:11.344Z,16.20
2023-04-22T21:07:42.156Z,16.10
2023-04-22T21:10:09.824Z,16.10
2023-04-22T21:12:38.194Z,16.00
2023-04-22T21:15:06.176Z,16.00
2023-04-22T21:17:35.337Z,15.90
2023-04-22T21:20:05.393Z,15.90
2023-04-22T21:22:32.748Z,15.90
2023-04-22T21:25:00.727Z,15.90
2023-04-22T21:27:27.892Z,15.80
2023-04-22T21:29:55.370Z,15.80
2023-04-22T21:32:22.288Z,15.80
2023-04-22T21:34:49.278Z,15.80
2023-04-22T21:37:16.227Z,15.80
2023-04-22T21:39:43.247Z,15.70
2023-04-22T21:42:10.541Z,15.70
2023-04-22T21:44:38.208Z,15.70
2023-04-22T21:47:05.855Z,15.70
2023-04-22T21:49:33.033Z,15.60
2023-04-22T21:52:00.017Z,15.60
2023-04-22T21:54:27.096Z,15.60
2023-04-22T21:56:54.065Z,15.50
2023-04-22T21:59:21.025Z,15.50
2023-04-22T22:01:48.033Z,15.50
2023-04-22T22:04:16.227Z,15.40
2023-04-22T22:06:44.950Z,15.30
2023-04-22T22:09:12.434Z,15.30
2023-04-22T22:11:39.460Z,15.20
2023-04-22T22:14:06.384Z,15.20
2023-04-22T22:16:33.539Z,15.20
2023-04-22T22:19:02.755Z,15.10
2023-04-22T22:21:29.943Z,15.10
2023-04-22T22:23:57.835Z,15.10
2023-04-22T22:26:24.922Z,15.00
2023-04-22T22:28:51.904Z,15.00
2023-04-22T22:31:19.027Z,15.00
2023-04-22T22:33:46.075Z,15.00
2023-04-22T22:36:13.032Z,15.00
2023-04-22T22:38:39.959Z,15.00
2023-04-22T22:41:06.912Z,15.00
2023-04-22T22:43:33.817Z,15.00
2023-04-22T22:46:00.891Z,14.90
2023-04-22T22:48:27.976Z,14.90
2023-04-22T22:50:56.645Z,14.90
2023-04-22T22:53:23.617Z,14.80
2023-04-22T22:55:50.700Z,14.80
2023-04-22T22:58:17.664Z,14.80
2023-04-22T23:00:44.605Z,14.80
2023-04-22T23:03:12.998Z,14.80
2023-04-22T23:05:40.041Z,14.80
2023-04-22T23:08:07.174Z,14.70
2023-04-22T23:10:34.091Z,14.70
2023-04-22T23:13:01.157Z,14.70
2023-04-22T23:15:28.298Z,14.70
2023-04-22T23:17:55.222Z,14.70
2023-04-22T23:20:23.675Z,14.70
2023-04-22T23:22:51.952Z,14.70
2023-04-22T23:25:19.567Z,14.70
2023-04-22T23:27:46.643Z,14.70
2023-04-22T23:30:14.008Z,14.70
2023-04-22T23:32:42.668Z,14.60
2023-04-22T23:35:12.735Z,14.60
2023-04-22T23:37:46.392Z,14.60
2023-04-22T23:40:13.803Z,14.60
2023-04-22T23:42:40.770Z,14.60
2023-04-22T23:45:08.456Z,14.60
2023-04-22T23:47:35.538Z,14.70
2023-04-22T23:50:03.458Z,14.60
2023-04-22T23:52:30.466Z,14.60
2023-04-22T23:54:57.752Z,14.60
2023-04-22T23:57:25.005Z,14.60
2023-04-22T23:59:52.186Z,14.60
